Time;durP1;ratioP1;P1;durP2;ratioP2;P2;SDS_P1;SDS_P2;PMS_P1;PMS_P2;Temp;Humidity;BMP_temperature;BMP_pressure;BME280_temperature;BME280_humidity;BME280_pressure;Samples;Min_cycle;Max_cycle;Signal;HPM_P1;HPM_P2
2023/07/19 00:00:06;;;;;;;;;26.75;26.00;;;;;25.40;45.49;99210.56;5084168;28;8846;-78
2023/07/19 00:03:02;;;;;;;;;22.20;22.20;;;;;25.44;45.55;99202.06;5071205;28;8849;-78
2023/07/19 00:05:32;;;;;;;;;24.20;23.80;;;;;25.51;45.18;99186.22;5068330;28;8918;-79
2023/07/19 00:08:01;;;;;;;;;24.00;23.60;;;;;25.57;45.06;99177.63;5068499;28;8853;-78
2023/07/19 00:10:31;;;;;;;;;26.00;25.60;;;;;25.61;45.04;99183.59;5068365;28;9579;-78
2023/07/19 00:12:59;;;;;;;;;25.80;24.00;;;;;25.63;44.76;99160.91;5085385;28;8826;-80
2023/07/19 00:15:30;;;;;;;;;22.80;22.40;;;;;25.57;45.34;99145.31;5050854;28;8862;-78
2023/07/19 00:17:59;;;;;;;;;21.80;21.20;;;;;25.67;44.70;99107.66;5073781;28;8986;-77
2023/07/19 00:20:30;;;;;;;;;23.80;22.20;;;;;25.73;44.32;99057.78;5078304;28;8839;-78
2023/07/19 00:22:59;;;;;;;;;21.80;20.80;;;;;25.69;44.59;99033.81;5085260;28;8948;-78
2023/07/19 00:25:28;;;;;;;;;21.40;19.00;;;;;25.68;43.92;99018.69;5068175;28;8847;-77
2023/07/19 00:27:56;;;;;;;;;25.00;23.40;;;;;25.51;44.46;99005.91;5082246;28;8893;-78
2023/07/19 00:30:25;;;;;;;;;24.00;22.20;;;;;25.36;45.50;99010.03;5067536;28;8873;-78
2023/07/19 00:32:54;;;;;;;;;26.00;26.00;;;;;24.80;46.93;99020.34;5076774;28;8862;-78
2023/07/19 00:35:23;;;;;;;;;24.60;22.40;;;;;24.99;46.14;99034.84;5087719;28;8859;-78
2023/07/19 00:37:53;;;;;;;;;17.40;17.40;;;;;24.54;47.37;99044.13;5086885;28;8854;-78
2023/07/19 00:40:22;;;;;;;;;19.80;19.20;;;;;24.65;47.26;99070.06;5061277;28;8969;-77
2023/07/19 00:42:56;;;;;;;;;18.50;17.25;;;;;24.36;47.85;99084.19;5008789;28;1220587;-76
2023/07/19 00:45:26;;;;;;;;;20.20;17.80;;;;;24.15;48.73;99082.38;5066301;28;9653;-78
2023/07/19 00:47:57;;;;;;;;;21.00;20.20;;;;;24.48;47.90;99101.94;5049136;28;8856;-79
2023/07/19 00:50:27;;;;;;;;;24.40;24.00;;;;;24.66;47.19;99091.44;5063620;28;8836;-78
2023/07/19 00:52:57;;;;;;;;;21.80;20.00;;;;;24.80;47.35;99109.06;5075645;28;8899;-79
2023/07/19 00:55:27;;;;;;;;;19.80;19.00;;;;;24.78;47.39;99108.34;5019730;28;8886;-77
2023/07/19 00:57:55;;;;;;;;;19.60;19.60;;;;;24.62;48.24;99114.19;5015184;28;8949;-78
2023/07/19 01:00:26;;;;;;;;;23.00;21.20;;;;;24.69;48.35;99122.56;5050179;28;8851;-77
2023/07/19 01:02:54;;;;;;;;;21.60;21.60;;;;;24.75;47.97;99116.69;5052407;28;8844;-78
2023/07/19 01:05:24;;;;;;;;;24.80;22.00;;;;;24.88;47.60;99111.09;5052482;28;8835;-78
2023/07/19 01:07:54;;;;;;;;;21.60;21.60;;;;;24.90;47.40;99109.94;5068628;28;8870;-79
2023/07/19 01:10:26;;;;;;;;;22.40;21.40;;;;;24.99;47.02;99088.63;5089694;28;8848;-79
2023/07/19 01:13:04;;;;;;;;;24.40;23.40;;;;;25.15;46.54;99077.34;5089835;28;8863;-79
2023/07/19 01:15:33;;;;;;;;;24.00;23.00;;;;;25.09;46.49;99070.69;5089907;28;8868;-78
2023/07/19 01:18:02;;;;;;;;;25.20;25.20;;;;;25.13;46.24;99059.53;5055748;28;8859;-78
2023/07/19 01:20:33;;;;;;;;;23.40;21.00;;;;;25.21;45.49;99048.06;5072598;28;8844;-79
2023/07/19 01:23:04;;;;;;;;;19.60;19.40;;;;;25.25;45.72;99051.34;5073053;28;8856;-79
2023/07/19 01:25:33;;;;;;;;;22.20;21.60;;;;;25.29;45.21;99044.69;5082806;28;8847;-78
2023/07/19 01:28:02;;;;;;;;;23.40;22.40;;;;;25.26;44.93;99042.25;5058235;28;8871;-80
2023/07/19 01:30:31;;;;;;;;;20.60;19.60;;;;;25.27;44.84;99058.28;5093562;28;8855;-78
2023/07/19 01:33:00;;;;;;;;;21.00;19.80;;;;;25.24;44.88;99069.28;5092190;28;8971;-79
2023/07/19 01:35:29;;;;;;;;;16.80;16.80;;;;;25.19;44.74;99081.47;5075258;28;8847;-78
2023/07/19 01:37:58;;;;;;;;;20.40;19.20;;;;;25.30;44.50;99067.91;5054656;28;8862;-79
2023/07/19 01:40:28;;;;;;;;;21.20;19.80;;;;;25.38;44.97;99068.09;5058396;28;8835;-77
2023/07/19 01:42:57;;;;;;;;;20.80;19.20;;;;;25.44;44.29;99067.53;5035407;28;8927;-78
2023/07/19 01:45:28;;;;;;;;;19.00;19.00;;;;;25.49;43.69;99067.97;5014315;28;9597;-80
2023/07/19 01:47:56;;;;;;;;;19.60;19.60;;;;;25.22;44.81;99070.44;5013820;28;8945;-79
2023/07/19 01:50:26;;;;;;;;;18.00;15.60;;;;;25.32;44.50;99076.69;4996948;28;8867;-81
2023/07/19 01:52:55;;;;;;;;;17.40;17.40;;;;;25.37;44.75;99077.16;4996457;28;8913;-79
2023/07/19 01:55:24;;;;;;;;;20.40;20.40;;;;;25.39;44.40;99068.94;5029788;28;8845;-78
2023/07/19 01:57:54;;;;;;;;;19.00;18.40;;;;;25.44;44.15;99075.59;5031905;28;8847;-78
2023/07/19 02:00:23;;;;;;;;;19.80;19.60;;;;;25.55;44.08;99071.06;5068270;28;8870;-79
2023/07/19 02:02:53;;;;;;;;;18.40;17.80;;;;;25.40;44.37;99067.97;5068230;28;9055;-78
2023/07/19 02:05:22;;;;;;;;;20.00;20.00;;;;;25.45;43.67;99055.75;5022908;28;9599;-79
2023/07/19 02:07:51;;;;;;;;;18.20;18.20;;;;;25.44;44.17;99051.38;5015126;28;8942;-81
2023/07/19 02:10:20;;;;;;;;;21.40;19.60;;;;;25.45;44.04;99045.00;5030838;28;8857;-78
2023/07/19 02:12:49;;;;;;;;;18.20;18.20;;;;;25.49;43.80;99035.69;5047839;28;9611;-79
2023/07/19 02:15:20;;;;;;;;;18.80;18.60;;;;;25.52;43.55;99023.78;5054066;28;9739;-78
2023/07/19 02:17:49;;;;;;;;;23.00;20.80;;;;;25.51;44.27;99014.88;5032626;28;8988;-80
2023/07/19 02:20:19;;;;;;;;;19.80;19.40;;;;;25.52;43.69;99015.69;5033223;28;10130;-77
2023/07/19 02:22:48;;;;;;;;;17.20;17.20;;;;;25.51;43.86;99020.25;5032901;28;8995;-79
2023/07/19 02:25:17;;;;;;;;;20.20;17.20;;;;;25.51;44.26;99022.06;5032500;28;8861;-78
2023/07/19 02:27:45;;;;;;;;;17.60;17.60;;;;;25.49;43.94;99021.34;5049401;28;8865;-77
2023/07/19 02:30:14;;;;;;;;;18.60;18.60;;;;;25.52;43.99;99035.38;5060350;28;8860;-78
2023/07/19 02:32:44;;;;;;;;;21.40;21.40;;;;;25.39;43.63;99033.97;5089388;28;8876;-80
2023/07/19 02:35:14;;;;;;;;;18.80;18.80;;;;;25.43;43.97;99046.97;5072458;28;8871;-79
2023/07/19 02:37:42;;;;;;;;;20.60;19.80;;;;;25.45;44.20;99045.00;5059538;28;8988;-78
2023/07/19 02:40:12;;;;;;;;;21.20;18.60;;;;;25.48;44.37;99046.59;5052905;28;8854;-79
2023/07/19 02:42:41;;;;;;;;;20.40;20.00;;;;;25.52;43.28;99045.31;5052383;28;8876;-79
2023/07/19 02:45:10;;;;;;;;;18.80;18.00;;;;;25.39;44.67;99050.09;5028482;28;9902;-77
2023/07/19 02:47:39;;;;;;;;;21.60;19.60;;;;;25.46;44.39;99067.41;5106137;28;8835;-78
2023/07/19 02:50:10;;;;;;;;;22.40;21.00;;;;;25.49;44.39;99070.66;5089252;28;8832;-79
2023/07/19 02:52:39;;;;;;;;;20.00;20.00;;;;;25.46;44.75;99080.84;5089203;28;8855;-80
2023/07/19 02:55:08;;;;;;;;;19.80;19.80;;;;;25.43;44.71;99076.59;5073282;28;8925;-79
2023/07/19 02:57:37;;;;;;;;;20.60;20.20;;;;;25.47;44.78;99075.34;5074695;28;8869;-77
2023/07/19 03:00:08;;;;;;;;;21.60;21.60;;;;;25.48;44.77;99068.09;5058031;28;9573;-79
2023/07/19 03:02:36;;;;;;;;;21.20;20.40;;;;;25.48;44.55;99074.34;5021919;28;8855;-79
2023/07/19 03:05:06;;;;;;;;;19.80;19.80;;;;;25.52;43.95;99082.97;5088676;28;8844;-79
2023/07/19 03:07:36;;;;;;;;;27.00;25.20;;;;;25.46;44.94;99081.69;5071651;28;8836;-79
2023/07/19 03:10:06;;;;;;;;;21.60;20.00;;;;;25.39;44.62;99072.47;5069356;28;8953;-80
2023/07/19 03:12:35;;;;;;;;;21.80;21.80;;;;;25.53;45.13;99071.25;5052284;28;8881;-78
2023/07/19 03:15:04;;;;;;;;;18.40;18.40;;;;;25.50;44.74;99064.28;5019211;28;8869;-78
2023/07/19 03:17:33;;;;;;;;;20.60;19.40;;;;;25.48;44.36;99073.50;5089143;28;8957;-79
2023/07/19 03:20:03;;;;;;;;;25.80;23.20;;;;;25.13;45.91;99097.19;5014103;28;8879;-79
2023/07/19 03:22:32;;;;;;;;;21.20;21.20;;;;;24.84;46.15;99088.16;5051418;28;8848;-78
2023/07/19 03:25:02;;;;;;;;;21.60;21.60;;;;;25.03;46.42;99087.38;5001571;28;8847;-80
2023/07/19 03:27:31;;;;;;;;;18.60;17.80;;;;;25.12;46.18;99094.63;5071744;28;8863;-79
2023/07/19 03:30:01;;;;;;;;;22.20;21.80;;;;;25.11;46.31;99095.59;5075606;28;8869;-78
2023/07/19 03:32:31;;;;;;;;;23.60;22.60;;;;;25.18;46.06;99110.19;5025844;28;8867;-78
2023/07/19 03:35:00;;;;;;;;;24.20;23.40;;;;;25.21;45.51;99098.31;5026486;28;8872;-78
2023/07/19 03:37:30;;;;;;;;;22.20;21.40;;;;;25.25;45.93;99097.06;5009927;28;9729;-77
2023/07/19 03:39:58;;;;;;;;;18.20;16.20;;;;;25.26;45.95;99098.75;5010155;28;8847;-79
2023/07/19 03:42:29;;;;;;;;;25.00;21.20;;;;;25.30;45.83;99106.44;5012163;28;8938;-77
2023/07/19 03:44:58;;;;;;;;;24.60;24.60;;;;;25.27;45.87;99104.00;5029886;28;8883;-78
2023/07/19 03:47:26;;;;;;;;;29.00;27.00;;;;;25.30;45.39;99100.19;5029794;28;8841;-78
2023/07/19 03:49:56;;;;;;;;;30.50;27.50;;;;;25.20;45.71;99105.53;5032441;28;8980;-77
2023/07/19 03:52:25;;;;;;;;;28.00;27.50;;;;;23.75;50.63;99123.28;5049244;28;9795;-76
2023/07/19 03:54:56;;;;;;;;;25.50;25.50;;;;;22.67;54.48;99138.19;5049459;28;8842;-81
2023/07/19 03:57:31;;;;;;;;;25.60;25.60;;;;;22.60;55.29;99133.31;5049975;28;8970;-82
2023/07/19 04:00:03;;;;;;;;;28.00;27.20;;;;;22.47;55.96;99126.31;4981581;28;8857;-82
2023/07/19 04:02:44;;;;;;;;;27.80;26.60;;;;;22.42;56.02;99127.53;5048010;28;8861;-83
2023/07/19 04:05:17;;;;;;;;;22.40;21.60;;;;;22.76;54.89;99119.56;5050869;28;8934;-82
2023/07/19 04:07:45;;;;;;;;;29.00;28.00;;;;;22.98;54.16;99116.06;5067161;28;8858;-82
2023/07/19 04:10:15;;;;;;;;;42.00;35.25;;;;;23.22;53.42;99115.06;5037738;28;8828;-83
2023/07/19 04:12:46;;;;;;;;;25.20;23.80;;;;;22.89;54.80;99113.28;5037093;28;8992;-83
2023/07/19 04:15:15;;;;;;;;;28.60;27.00;;;;;22.70;55.49;99127.25;5071025;28;8844;-82
2023/07/19 04:17:45;;;;;;;;;27.80;25.40;;;;;22.87;55.17;99121.41;5087753;28;9966;-83
2023/07/19 04:20:14;;;;;;;;;28.50;26.75;;;;;23.22;54.04;99131.16;5070208;28;8859;-82
2023/07/19 04:22:43;;;;;;;;;26.20;25.60;;;;;23.02;54.84;99143.47;5050897;28;8866;-83
2023/07/19 04:25:13;;;;;;;;;30.40;28.60;;;;;22.56;56.48;99155.09;5087933;28;8867;-83
2023/07/19 04:27:42;;;;;;;;;28.50;26.50;;;;;22.73;56.14;99161.81;5071245;28;8909;-83
2023/07/19 04:30:14;;;;;;;;;27.00;27.00;;;;;22.79;56.28;99164.88;5087727;28;8847;-84
2023/07/19 04:32:43;;;;;;;;;30.80;30.00;;;;;22.87;55.97;99166.13;5037368;28;8852;-84
2023/07/19 04:35:13;;;;;;;;;31.50;29.00;;;;;22.85;56.07;99165.38;5083707;28;8856;-82
2023/07/19 04:37:42;;;;;;;;;28.00;27.75;;;;;23.15;55.17;99164.81;5047676;28;8877;-82
2023/07/19 04:40:12;;;;;;;;;28.40;26.60;;;;;23.53;54.18;99155.53;5050718;28;9099;-82
2023/07/19 04:42:41;;;;;;;;;27.25;27.25;;;;;23.86;53.21;99146.53;5068791;28;9624;-84
2023/07/19 04:45:13;;;;;;;;;32.75;31.00;;;;;23.88;53.15;99144.56;5022380;28;9972;-82
2023/07/19 04:47:43;;;;;;;;;29.75;27.50;;;;;23.83;53.26;99143.25;5057660;28;9039;-84
2023/07/19 04:50:13;;;;;;;;;31.50;29.75;;;;;23.71;53.49;99148.63;5061533;28;8984;-86
2023/07/19 04:52:45;;;;;;;;;70.75;61.00;;;;;23.89;52.72;99146.28;5046731;28;8887;-81
2023/07/19 04:55:15;;;;;;;;;38.50;34.00;;;;;24.00;52.50;99156.13;5035698;28;10317;-79
2023/07/19 04:57:44;;;;;;;;;31.50;30.00;;;;;23.90;52.96;99149.81;5060603;28;8841;-82
2023/07/19 05:00:17;;;;;;;;;35.75;32.00;;;;;24.41;51.44;99142.91;5068805;28;8881;-83
2023/07/19 05:02:47;;;;;;;;;33.25;30.25;;;;;24.65;50.19;99129.19;5030300;28;8862;-84
2023/07/19 05:05:17;;;;;;;;;26.20;26.20;;;;;25.02;48.91;99139.44;5035816;28;8879;-82
2023/07/19 05:07:47;;;;;;;;;31.25;29.00;;;;;25.18;48.54;99145.16;5031923;28;8979;-84
2023/07/19 05:10:19;;;;;;;;;27.20;26.80;;;;;25.32;47.77;99143.97;5031715;28;8849;-85
2023/07/19 05:12:48;;;;;;;;;26.40;25.60;;;;;25.51;47.78;99152.09;5048973;28;8965;-82
2023/07/19 05:15:19;;;;;;;;;22.20;21.00;;;;;25.76;47.47;99146.34;5074660;28;8861;-82
2023/07/19 05:17:49;;;;;;;;;27.20;26.20;;;;;26.00;46.69;99145.94;5037962;28;8853;-87
2023/07/19 05:20:19;;;;;;;;;26.50;24.50;;;;;26.25;45.84;99147.25;5006449;28;8860;-83
2023/07/19 05:22:49;;;;;;;;;8.40;7.80;;;;;26.43;45.26;99141.97;5049683;28;8856;-83
2023/07/19 05:25:18;;;;;;;;;28.40;28.20;;;;;26.46;45.29;99131.78;5049336;28;8962;-84
2023/07/19 05:27:47;;;;;;;;;30.40;25.40;;;;;26.66;44.65;99121.81;5049204;28;8875;-83
2023/07/19 05:30:17;;;;;;;;;27.00;25.75;;;;;26.87;44.90;99123.41;5070846;28;8828;-81
2023/07/19 05:32:47;;;;;;;;;24.20;24.20;;;;;27.03;43.94;99122.84;5010032;28;9948;-81
2023/07/19 05:35:18;;;;;;;;;25.80;25.80;;;;;27.25;43.64;99127.00;5058712;28;8838;-89
2023/07/19 05:37:47;;;;;;;;;27.00;24.20;;;;;27.45;43.24;99125.00;5068242;28;8865;-74
2023/07/19 05:40:17;;;;;;;;;22.40;22.40;;;;;27.64;42.64;99124.06;5058101;28;8862;-76
2023/07/19 05:42:46;;;;;;;;;25.00;24.50;;;;;27.42;42.85;99118.09;5067191;28;8981;-79
2023/07/19 05:45:15;;;;;;;;;27.00;26.00;;;;;27.09;43.00;99121.38;5061696;28;8865;-82
2023/07/19 05:47:44;;;;;;;;;29.00;28.50;;;;;26.83;43.57;99132.81;5075521;28;8936;-81
2023/07/19 05:50:15;;;;;;;;;26.25;24.00;;;;;27.24;42.66;99125.28;5079373;28;8860;-79
2023/07/19 05:52:44;;;;;;;;;25.50;23.25;;;;;27.27;42.56;99132.22;5049373;28;8887;-80
2023/07/19 05:55:14;;;;;;;;;26.50;26.25;;;;;26.72;44.05;99125.75;5067626;28;8888;-76
2023/07/19 05:57:43;;;;;;;;;25.50;24.50;;;;;27.09;42.63;99119.53;5070085;28;8911;-76
2023/07/19 06:00:24;;;;;;;;;31.75;30.00;;;;;27.43;42.61;99111.66;5069358;28;8842;-74
2023/07/19 06:02:53;;;;;;;;;25.50;25.50;;;;;27.66;41.83;99110.41;5068597;28;8963;-77
2023/07/19 06:05:26;;;;;;;;;29.00;26.25;;;;;27.82;41.29;99107.91;5069703;28;9661;-75
2023/07/19 06:07:55;;;;;;;;;24.00;24.00;;;;;28.03;41.43;99116.50;5068232;28;8854;-74
2023/07/19 06:10:41;;;;;;;;;26.50;24.25;;;;;28.25;40.19;99106.25;5069341;28;8842;-74
2023/07/19 06:13:13;;;;;;;;;23.50;23.50;;;;;28.37;40.18;99114.97;5070610;28;8851;-74
2023/07/19 06:15:42;;;;;;;;;23.00;23.00;;;;;28.50;40.14;99109.13;5070488;28;8846;-76
2023/07/19 06:18:11;;;;;;;;;23.80;23.60;;;;;28.29;40.57;99120.28;5070434;28;8877;-73
2023/07/19 06:20:42;;;;;;;;;22.25;21.25;;;;;28.22;40.47;99125.50;5051800;28;8861;-73
2023/07/19 06:23:10;;;;;;;;;10.25;9.00;;;;;28.44;40.06;99123.28;5070553;28;9580;-74
2023/07/19 06:25:39;;;;;;;;;22.00;20.80;;;;;28.07;39.91;99127.03;5070972;28;8858;-74
2023/07/19 06:28:08;;;;;;;;;21.40;21.00;;;;;28.29;39.89;99131.09;5070360;28;8854;-75
2023/07/19 06:30:37;;;;;;;;;21.50;21.50;;;;;28.21;40.00;99134.59;5070402;28;8846;-74
2023/07/19 06:33:06;;;;;;;;;49.75;40.25;;;;;28.44;39.62;99128.69;5069937;28;8973;-77
2023/07/19 06:35:35;;;;;;;;;29.75;28.75;;;;;28.68;39.37;99128.88;5068464;28;9093;-78
2023/07/19 06:38:05;;;;;;;;;28.50;28.25;;;;;28.07;39.64;99133.28;5048914;28;8933;-71
2023/07/19 06:40:34;;;;;;;;;22.00;21.50;;;;;26.91;41.18;99134.75;5050011;28;8864;-69
2023/07/19 06:43:06;;;;;;;;;20.40;20.40;;;;;26.52;42.29;99129.50;5056248;28;8968;-67
2023/07/19 06:45:35;;;;;;;;;19.40;18.00;;;;;26.17;42.25;99131.75;5069446;28;9026;-70
2023/07/19 06:48:03;;;;;;;;;22.80;21.20;;;;;26.77;41.47;99114.53;5050662;28;8855;-72
2023/07/19 06:50:33;;;;;;;;;20.60;19.40;;;;;27.27;41.26;99106.09;5070074;28;8907;-73
2023/07/19 06:53:02;;;;;;;;;17.80;17.20;;;;;27.73;40.28;99090.75;5068918;28;8897;-70
2023/07/19 06:55:32;;;;;;;;;17.40;16.40;;;;;28.05;39.39;99091.22;5069466;28;8881;-79
2023/07/19 06:58:01;;;;;;;;;19.40;16.40;;;;;28.33;38.68;99094.66;5068856;28;8866;-79
2023/07/19 07:00:30;;;;;;;;;19.80;19.80;;;;;28.62;37.57;99090.78;5069119;28;9639;-79
2023/07/19 07:02:58;;;;;;;;;20.40;19.20;;;;;28.88;36.83;99094.34;5034809;28;8916;-79
2023/07/19 07:05:28;;;;;;;;;16.20;16.20;;;;;28.53;36.72;99098.84;5083869;28;8843;-79
2023/07/19 07:07:56;;;;;;;;;20.20;20.20;;;;;28.22;38.09;99093.91;5001756;28;8862;-79
2023/07/19 07:10:25;;;;;;;;;18.60;17.40;;;;;28.43;36.74;99094.56;5034365;28;8838;-81
2023/07/19 07:12:55;;;;;;;;;20.80;19.80;;;;;27.70;38.39;99103.72;5050595;28;8932;-79
2023/07/19 07:15:24;;;;;;;;;18.20;16.00;;;;;27.55;39.51;99117.72;5068056;28;8835;-81
2023/07/19 07:17:53;;;;;;;;;18.00;18.00;;;;;27.33;39.90;99123.53;5067835;28;8931;-79
2023/07/19 07:20:22;;;;;;;;;18.60;16.60;;;;;27.34;39.05;99120.66;5068925;28;8957;-82
2023/07/19 07:22:52;;;;;;;;;14.80;14.40;;;;;27.58;38.42;99114.72;5035759;28;8976;-81
2023/07/19 07:25:22;;;;;;;;;18.80;17.80;;;;;27.70;38.04;99104.53;5070233;28;8885;-81
2023/07/19 07:27:50;;;;;;;;;16.80;16.40;;;;;27.15;37.71;99104.59;5069049;28;8989;-80
2023/07/19 07:30:21;;;;;;;;;16.80;13.40;;;;;26.66;37.31;99104.75;5068668;28;8826;-75
2023/07/19 07:32:49;;;;;;;;;18.00;16.00;;;;;26.42;38.53;99106.09;5033355;28;8842;-77
2023/07/19 07:35:19;;;;;;;;;14.80;14.00;;;;;26.13;38.10;99105.28;5033123;28;8909;-77
2023/07/19 07:37:47;;;;;;;;;12.80;12.80;;;;;26.52;38.46;99102.53;5068820;28;8970;-76
2023/07/19 07:40:16;;;;;;;;;13.20;12.80;;;;;26.85;37.82;99102.00;5068861;28;8834;-75
2023/07/19 07:42:45;;;;;;;;;18.00;15.80;;;;;27.44;37.36;99110.69;5069224;28;8866;-75
2023/07/19 07:45:14;;;;;;;;;16.20;15.20;;;;;27.34;37.87;99104.47;5068957;28;8838;-74
2023/07/19 07:47:44;;;;;;;;;15.00;14.80;;;;;27.46;37.88;99107.84;5067783;28;8980;-75
2023/07/19 07:50:13;;;;;;;;;21.80;20.60;;;;;27.19;38.11;99122.19;5068659;28;9658;-75
2023/07/19 07:52:42;;;;;;;;;17.80;16.20;;;;;27.08;39.12;99115.16;5068949;28;8851;-76
2023/07/19 07:55:14;;;;;;;;;16.40;16.40;;;;;26.61;39.70;99115.16;5068839;28;8911;-81
2023/07/19 07:57:43;;;;;;;;;13.80;13.60;;;;;26.62;39.40;99111.44;5067944;28;8866;-80
2023/07/19 08:00:15;;;;;;;;;18.80;15.60;;;;;27.10;38.61;99109.56;5067530;28;8850;-80
2023/07/19 08:02:45;;;;;;;;;22.20;19.60;;;;;26.39;39.96;99117.13;5068671;28;8971;-77
2023/07/19 08:05:14;;;;;;;;;15.40;15.40;;;;;26.37;41.16;99107.50;5068508;28;8927;-81
2023/07/19 08:07:42;;;;;;;;;16.20;15.80;;;;;26.25;41.84;99115.75;5067508;28;8914;-77
2023/07/19 08:10:12;;;;;;;;;14.60;13.40;;;;;26.27;41.95;99107.53;5067148;28;8846;-80
2023/07/19 08:12:40;;;;;;;;;18.60;18.60;;;;;26.57;41.65;99114.59;5067284;28;8861;-79
2023/07/19 08:15:10;;;;;;;;;19.20;17.80;;;;;26.61;41.03;99115.16;5067243;28;8846;-77
2023/07/19 08:17:39;;;;;;;;;21.00;18.60;;;;;26.57;41.57;99127.19;5067170;28;9641;-77
2023/07/19 08:20:11;;;;;;;;;16.00;16.00;;;;;26.96;40.78;99127.91;5049502;28;8846;-77
2023/07/19 08:22:40;;;;;;;;;15.60;15.20;;;;;26.32;41.45;99131.34;5068207;28;8854;-74
2023/07/19 08:25:09;;;;;;;;;18.80;17.60;;;;;26.23;42.50;99133.03;5016333;28;8839;-76
2023/07/19 08:27:55;;;;;;;;;18.40;17.00;;;;;26.06;44.16;99127.41;5037934;28;8885;-77
2023/07/19 08:30:24;;;;;;;;;25.40;23.80;;;;;26.24;43.93;99130.19;5068791;28;8840;-75
2023/07/19 08:32:53;;;;;;;;;17.00;16.80;;;;;26.14;42.87;99129.38;5086127;28;8990;-77
2023/07/19 08:35:23;;;;;;;;;18.40;17.00;;;;;26.35;42.46;99131.91;5069356;28;9592;-80
2023/07/19 08:37:52;;;;;;;;;20.40;16.20;;;;;26.67;41.65;99120.78;5052591;28;8844;-76
2023/07/19 08:40:21;;;;;;;;;17.00;14.40;;;;;26.86;41.32;99122.56;5019712;28;8848;-76
2023/07/19 08:42:51;;;;;;;;;19.60;17.20;;;;;26.35;42.05;99118.44;5068893;28;9740;-77
2023/07/19 08:45:24;;;;;;;;;21.40;20.20;;;;;26.38;41.94;99114.59;5086305;28;8959;-78
2023/07/19 08:47:54;;;;;;;;;15.40;15.00;;;;;26.07;43.29;99104.00;5085512;28;8871;-75
2023/07/19 08:50:26;;;;;;;;;14.20;14.20;;;;;26.45;42.28;99105.78;5065875;28;8863;-77
2023/07/19 08:53:01;;;;;;;;;17.80;16.80;;;;;26.57;41.70;99111.03;5065477;28;8938;-79
2023/07/19 08:55:31;;;;;;;;;16.60;16.60;;;;;27.18;40.50;99105.16;5048985;28;8872;-81
2023/07/19 08:58:00;;;;;;;;;11.80;11.80;;;;;27.82;39.38;99102.50;5065697;28;8836;-76
2023/07/19 09:00:32;;;;;;;;;13.00;13.00;;;;;27.48;38.31;99123.84;5066056;28;8858;-75
2023/07/19 09:03:00;;;;;;;;;13.00;12.40;;;;;27.45;38.20;99109.66;5033013;28;8845;-81
2023/07/19 09:05:31;;;;;;;;;10.00;10.00;;;;;28.06;37.08;99120.75;5049311;28;9570;-81
2023/07/19 09:08:00;;;;;;;;;12.00;12.00;;;;;27.57;37.76;99121.16;5049158;28;8860;-77
2023/07/19 09:10:29;;;;;;;;;15.60;14.60;;;;;27.38;36.94;99121.22;5049040;28;8885;-77
2023/07/19 09:12:58;;;;;;;;;18.80;15.40;;;;;27.88;36.58;99106.44;5016436;28;8895;-76
2023/07/19 09:15:28;;;;;;;;;12.80;12.20;;;;;27.84;35.54;99113.97;5066382;28;8873;-83
2023/07/19 09:17:57;;;;;;;;;13.00;11.00;;;;;27.34;35.78;99125.22;5032255;28;8869;-76
2023/07/19 09:20:28;;;;;;;;;11.00;9.80;;;;;27.37;36.13;99130.34;5065394;28;8830;-74
2023/07/19 09:22:58;;;;;;;;;12.80;12.00;;;;;27.67;34.89;99118.38;5071092;28;8864;-82
2023/07/19 09:25:28;;;;;;;;;12.40;12.40;;;;;28.01;35.68;99120.38;5070766;28;8865;-82
2023/07/19 09:27:57;;;;;;;;;7.00;6.80;;;;;27.90;34.44;99113.34;5071768;28;8865;-76
2023/07/19 09:30:26;;;;;;;;;12.40;11.60;;;;;27.98;34.61;99116.13;5072080;28;8870;-75
2023/07/19 09:33:00;;;;;;;;;9.00;9.00;;;;;28.02;34.44;99112.13;5000782;28;8941;-77
2023/07/19 09:35:30;;;;;;;;;8.60;8.60;;;;;27.95;35.37;99118.28;5034335;28;8853;-81
2023/07/19 09:38:00;;;;;;;;;14.40;14.00;;;;;27.95;35.88;99108.34;5049430;28;8938;-79
2023/07/19 09:40:31;;;;;;;;;10.00;9.80;;;;;28.19;34.91;99109.56;5016974;28;8845;-82
2023/07/19 09:43:01;;;;;;;;;11.00;10.00;;;;;28.47;33.63;99112.16;5033353;28;8853;-79
2023/07/19 09:45:32;;;;;;;;;10.00;8.60;;;;;28.60;33.47;99110.72;5038105;28;8849;-80
2023/07/19 09:48:04;;;;;;;;;12.40;12.40;;;;;28.34;33.66;99115.28;5049007;28;8901;-82
2023/07/19 09:50:33;;;;;;;;;9.80;8.40;;;;;27.98;34.51;99113.41;5048559;28;8880;-77
2023/07/19 09:53:04;;;;;;;;;16.00;16.00;;;;;28.17;34.62;99111.59;5032302;28;8849;-77
2023/07/19 09:55:34;;;;;;;;;10.00;10.00;;;;;27.96;34.96;99107.31;5032488;28;8868;-80
2023/07/19 09:58:06;;;;;;;;;7.80;7.40;;;;;28.19;34.48;99096.06;5049635;28;8837;-81
2023/07/19 10:00:36;;;;;;;;;10.20;8.60;;;;;28.33;33.99;99091.97;5048923;28;8837;-80
2023/07/19 10:03:06;;;;;;;;;7.80;7.00;;;;;28.45;33.33;99087.97;5049929;28;8865;-82
2023/07/19 10:05:36;;;;;;;;;6.60;6.60;;;;;28.15;32.77;99092.81;5052945;28;8842;-78
2023/07/19 10:08:11;;;;;;;;;3.20;3.20;;;;;28.15;32.46;99081.19;5069578;28;8838;-77
2023/07/19 10:10:41;;;;;;;;;10.00;8.80;;;;;28.75;31.66;99083.13;5069504;28;8935;-75
2023/07/19 10:13:13;;;;;;;;;6.80;6.80;;;;;28.88;32.53;99079.97;5019187;28;8877;-76
2023/07/19 10:15:51;;;;;;;;;6.80;6.60;;;;;29.01;32.80;99071.38;5086283;28;8850;-75
2023/07/19 10:18:20;;;;;;;;;9.40;8.80;;;;;29.58;31.74;99066.16;5070442;28;8915;-76
2023/07/19 10:21:01;;;;;;;;;7.80;6.20;;;;;29.30;29.10;99068.31;5070947;28;8830;-82
2023/07/19 10:23:31;;;;;;;;;6.40;5.60;;;;;28.53;31.69;99073.66;5069794;28;8905;-77
2023/07/19 10:26:06;;;;;;;;;7.40;7.40;;;;;29.04;30.61;99066.50;5035539;28;9682;-76
2023/07/19 10:28:35;;;;;;;;;7.60;6.40;;;;;29.18;30.17;99060.50;5069404;28;8900;-77
2023/07/19 10:31:06;;;;;;;;;6.00;6.00;;;;;29.04;31.27;99050.25;5070586;28;8877;-79
2023/07/19 10:33:55;;;;;;;;;5.60;5.60;;;;;29.56;30.08;99035.69;5070286;28;9616;-74
2023/07/19 10:36:25;;;;;;;;;3.60;3.60;;;;;28.76;29.95;99036.09;5070403;28;8834;-77
2023/07/19 10:38:55;;;;;;;;;7.40;5.80;;;;;29.14;30.05;99040.16;5068792;28;8904;-78
2023/07/19 10:41:24;;;;;;;;;6.00;4.80;;;;;29.53;29.15;99030.59;5070312;28;8865;-76
2023/07/19 10:43:58;;;;;;;;;6.80;6.20;;;;;30.18;28.67;99021.69;5069926;28;9722;-76
2023/07/19 10:46:31;;;;;;;;;6.40;4.80;;;;;30.49;27.75;99019.06;5069202;28;9576;-75
2023/07/19 10:48:59;;;;;;;;;6.20;6.20;;;;;30.99;27.34;99019.72;5054071;28;8857;-75
2023/07/19 10:51:29;;;;;;;;;7.40;6.60;;;;;30.99;27.24;99008.88;5048865;28;8865;-76
2023/07/19 10:53:59;;;;;;;;;4.20;3.20;;;;;30.25;27.66;99009.13;5050037;28;8848;-77
2023/07/19 10:56:29;;;;;;;;;7.00;6.00;;;;;30.06;26.57;99018.44;5049001;28;8995;-78
2023/07/19 10:58:59;;;;;;;;;4.20;3.20;;;;;29.81;28.31;99016.78;5066825;28;8834;-81
2023/07/19 11:01:29;;;;;;;;;5.60;5.00;;;;;29.60;28.95;99020.81;5068704;28;8870;-76
2023/07/19 11:04:04;;;;;;;;;3.80;3.80;;;;;29.79;27.97;99013.41;5069582;28;8847;-79
2023/07/19 11:06:34;;;;;;;;;5.00;4.80;;;;;30.45;27.66;98998.72;5068797;28;8850;-79
2023/07/19 11:09:09;;;;;;;;;3.60;3.60;;;;;29.97;27.17;99003.19;5085758;28;8839;-79
2023/07/19 11:11:39;;;;;;;;;3.20;3.20;;;;;30.58;27.32;99000.91;5070306;28;8864;-79
2023/07/19 11:14:08;;;;;;;;;7.40;4.00;;;;;31.13;26.40;98998.25;5069537;28;8846;-81
2023/07/19 11:16:37;;;;;;;;;5.00;5.00;;;;;31.56;26.32;98999.56;5068667;28;8968;-79
2023/07/19 11:19:06;;;;;;;;;5.80;5.40;;;;;31.81;25.75;99000.22;5068502;28;9016;-80
2023/07/19 11:21:35;;;;;;;;;5.20;4.20;;;;;31.64;26.03;98999.47;5068602;28;8830;-80
2023/07/19 11:24:05;;;;;;;;;5.00;5.00;;;;;31.81;26.28;98996.66;5051732;28;9643;-79
2023/07/19 11:26:51;;;;;;;;;4.00;4.00;;;;;32.03;25.37;98998.47;5068399;28;8865;-80
2023/07/19 11:29:20;;;;;;;;;4.20;4.20;;;;;31.51;25.35;98992.97;5069427;28;8846;-79
2023/07/19 11:31:49;;;;;;;;;4.00;4.00;;;;;31.24;25.96;98987.03;5034281;28;8843;-74
2023/07/19 11:34:18;;;;;;;;;4.00;4.00;;;;;30.77;26.36;98983.38;5069230;28;8923;-81
2023/07/19 11:36:48;;;;;;;;;5.00;4.00;;;;;31.49;25.77;98974.97;5069269;28;8881;-79
2023/07/19 11:39:17;;;;;;;;;3.40;3.20;;;;;31.96;24.72;98966.75;5067955;28;8923;-79